LFRB/BES METAR and TAF weather

Enter ICAO airport designator
Station Type Date Time Source
LFRB METAR 2022/01/26 14:30 UTC NOAA

LFRB 261430Z AUTO 19004KT 150V240 9000 NSC 09/04 Q1034 TEMPO 4000 BR BKN008


Station Type Date Time Source
LFRB Decoded METAR 2022/01/26 14:30 UTC NOAA

Brest, France (LFRB) 48-27N 004-25W 103M
Jan 26, 2022 - 09:30 AM EST / 2022.01.26 1430 UTC
Wind: from the S (190 degrees) at 5 MPH (4 KT) (direction variable):0
Visibility: 5 mile(s):0
Temperature: 48 F (9 C)
Dew Point: 39 F (4 C)
Relative Humidity: 70%
Pressure (altimeter): 30.53 in. Hg (1034 hPa)
ob: LFRB 261430Z AUTO 19004KT 150V240 9000 NSC 09/04 Q1034 TEMPO 4000 BR BKN008
cycle: 14

Station Type Date Time Source
LFRB TAF 2022/01/26 12:42 UTC NOAA

TAF LFRB 261100Z 2612/2718 18005KT 7000 SCT025 PROB30
TEMPO 2612/2620 4000 BR BKN008
TEMPO 2620/2712 2000 BR BKN003 PROB30
TEMPO 2622/2710 0500 FG VV///
TEMPO 2715/2718 4000 -DZRA BKN012

Example: see airport list